Time;durP1;ratioP1;P1;durP2;ratioP2;P2;SDS_P1;SDS_P2;PMS_P1;PMS_P2;Temp;Humidity;BMP_temperature;BMP_pressure;BME280_temperature;BME280_humidity;BME280_pressure;Samples;Min_cycle;Max_cycle;Signal;HPM_P1;HPM_P2
2022/05/18 00:00:29;;;;;;;;;;;;;;;;;;2574440;23;19904;-82
2022/05/18 00:01:30;;;;;;;;;;;;;;;;;;2574498;23;20220;-81
2022/05/18 00:02:32;;;;;;;;;;;;;;;;;;2574586;23;20465;-81
2022/05/18 00:03:35;;;;;;;;;;;;;;;;;;2574230;23;19970;-82
2022/05/18 00:04:35;;;;;;;;;;;;;;;;;;2572556;23;19950;-89
2022/05/18 00:05:37;;;;;;;;;;;;;;;;;;2574715;23;20275;-89
2022/05/18 00:06:38;;;;;;;;;;;;;;;;;;2574593;23;19903;-83
2022/05/18 00:07:38;;;;;;;;;;;;;;;;;;2574695;23;20295;-87
2022/05/18 00:08:40;;;;;;;;;;;;;;;;;;2574385;23;19910;-90
2022/05/18 00:09:41;;;;;;;;;;;;;;;;;;2574708;23;20030;-84
2022/05/18 00:10:42;;;;;;;;;;;;;;;;;;2557160;23;19904;-88
2022/05/18 00:11:42;;;;;;;;;;;;;;;;;;2561550;23;20367;-82
2022/05/18 00:12:47;;;;;;;;;;;;;;;;;;2574344;23;19915;-84
2022/05/18 00:13:50;;;;;;;;;;;;;;;;;;2557942;23;19904;-81
2022/05/18 00:14:51;;;;;;;;;;;;;;;;;;2558663;23;20335;-86
2022/05/18 00:15:51;;;;;;;;;;;;;;;;;;2574745;23;19904;-86
2022/05/18 00:16:51;;;;;;;;;;;;;;;;;;2570639;23;19903;-83
2022/05/18 00:17:52;;;;;;;;;;;;;;;;;;2574983;23;19908;-86
2022/05/18 00:18:52;;;;;;;;;;;;;;;;;;2557956;23;20326;-85
2022/05/18 00:20:00;;;;;;;;;;;;;;;;;;2559028;23;20329;-82
2022/05/18 00:21:07;;;;;;;;;;;;;;;;;;2574828;23;19911;-86
2022/05/18 00:22:27;;;;;;;;;;;;;;;;;;2575331;23;19903;-81
2022/05/18 00:23:35;;;;;;;;;;;;;;;;;;2570532;23;20080;-81
2022/05/18 00:24:41;;;;;;;;;;;;;;;;;;2574919;23;19907;-82
2022/05/18 00:25:49;;;;;;;;;;;;;;;;;;2575347;23;19904;-81
2022/05/18 00:27:03;;;;;;;;;;;;;;;;;;2575092;23;19904;-85
2022/05/18 00:28:32;;;;;;;;;;;;;;;;;;;;;
2022/05/18 00:29:33;;;;;;;;;;;;;;;;;;2575032;23;19969;-82
2022/05/18 00:30:34;;;;;;;;;;;;;;;;;;2575172;23;19908;-84
2022/05/18 00:31:34;;;;;;;;;;;;;;;;;;2574982;23;20335;-82
2022/05/18 00:32:37;;;;;;;;;;;;;;;;;;2558061;23;19919;-88
2022/05/18 00:33:38;;;;;;;;;;;;;;;;;;2562750;23;19908;-83
2022/05/18 00:34:45;;;;;;;;;;;;;;;;;;2570419;23;20327;-83
2022/05/18 00:35:48;;;;;;;;;;;;;;;;;;2574787;23;19904;-82
2022/05/18 00:36:51;;;;;;;;;;;;;;;;;;2575262;23;19908;-84
2022/05/18 00:37:56;;;;;;;;;;;;;;;;;;2575018;23;20208;-80
2022/05/18 00:38:59;;;;;;;;;;;;;;;;;;2575139;23;19914;-82
2022/05/18 00:40:18;;;;;;;;;;;;;;;;;;2575453;23;19910;-83
2022/05/18 00:41:30;;;;;;;;;;;;;;;;;;2559909;23;19907;-83
2022/05/18 00:42:30;;;;;;;;;;;;;;;;;;2564520;23;19923;-82
2022/05/18 00:43:33;;;;;;;;;;;;;;;;;;2557967;23;19946;-82
2022/05/18 00:44:35;;;;;;;;;;;;;;;;;;2562389;23;19908;-82
2022/05/18 00:45:40;;;;;;;;;;;;;;;;;;2575152;23;20339;-81
2022/05/18 00:46:43;;;;;;;;;;;;;;;;;;2575035;23;20375;-84
2022/05/18 00:47:48;;;;;;;;;;;;;;;;;;2571391;23;19904;-82
2022/05/18 00:48:52;;;;;;;;;;;;;;;;;;2575212;23;19911;-84
2022/05/18 00:49:59;;;;;;;;;;;;;;;;;;2575106;23;19903;-82
2022/05/18 00:51:18;;;;;;;;;;;;;;;;;;2575008;23;19962;-86
2022/05/18 00:52:32;;;;;;;;;;;;;;;;;;2574422;23;19911;-83
2022/05/18 00:53:44;;;;;;;;;;;;;;;;;;2574946;23;20367;-82
2022/05/18 00:54:51;;;;;;;;;;;;;;;;;;2575354;23;20228;-82
2022/05/18 00:56:01;;;;;;;;;;;;;;;;;;2574994;23;19907;-83
2022/05/18 00:57:04;;;;;;;;;;;;;;;;;;2575195;23;19914;-87
2022/05/18 00:58:05;;;;;;;;;;;;;;;;;;2575071;23;19904;-82
2022/05/18 00:59:10;;;;;;;;;;;;;;;;;;2575125;23;19957;-80
2022/05/18 01:00:34;;;;;;;;;;;;;;;;;;2571280;23;19918;-83
2022/05/18 01:01:39;;;;;;;;;;;;;;;;;;2541522;23;19975;-81
2022/05/18 01:02:44;;;;;;;;;;;;;;;;;;2570173;23;19962;-82
2022/05/18 01:03:48;;;;;;;;;;;;;;;;;;2574802;23;20353;-81
2022/05/18 01:04:55;;;;;;;;;;;;;;;;;;2570471;23;20257;-82
2022/05/18 01:05:59;;;;;;;;;;;;;;;;;;2570656;23;19979;-82
2022/05/18 01:07:11;;;;;;;;;;;;;;;;;;2574719;23;19903;-81
2022/05/18 01:08:14;;;;;;;;;;;;;;;;;;2558003;23;19908;-81
2022/05/18 01:09:34;;;;;;;;;;;;;;;;;;2562859;23;19915;-82
2022/05/18 01:10:34;;;;;;;;;;;;;;;;;;2570644;23;19954;-81
2022/05/18 01:11:35;;;;;;;;;;;;;;;;;;2574237;23;19962;-81
2022/05/18 01:12:36;;;;;;;;;;;;;;;;;;2575266;23;19969;-81
2022/05/18 01:13:38;;;;;;;;;;;;;;;;;;2575330;23;19904;-80
2022/05/18 01:14:43;;;;;;;;;;;;;;;;;;2575220;23;19908;-80
2022/05/18 01:15:43;;;;;;;;;;;;;;;;;;2575341;23;19914;-81
2022/05/18 01:16:43;;;;;;;;;;;;;;;;;;2575253;23;19903;-81
2022/05/18 01:17:46;;;;;;;;;;;;;;;;;;2570645;23;20239;-82
2022/05/18 01:18:48;;;;;;;;;;;;;;;;;;2574833;23;19957;-82
2022/05/18 01:19:52;;;;;;;;;;;;;;;;;;2575074;23;19911;-81
2022/05/18 01:20:54;;;;;;;;;;;;;;;;;;2574967;23;20258;-81
2022/05/18 01:21:59;;;;;;;;;;;;;;;;;;2575105;23;19927;-83
2022/05/18 01:23:02;;;;;;;;;;;;;;;;;;2575054;23;19908;-82
2022/05/18 01:24:16;;;;;;;;;;;;;;;;;;2575133;23;19914;-81
2022/05/18 01:25:16;;;;;;;;;;;;;;;;;;2569748;23;19903;-83
2022/05/18 01:26:18;;;;;;;;;;;;;;;;;;2574609;23;19943;-83
2022/05/18 01:27:19;;;;;;;;;;;;;;;;;;2571152;23;19911;-82
2022/05/18 01:28:20;;;;;;;;;;;;;;;;;;2575108;23;19951;-83
2022/05/18 01:29:21;;;;;;;;;;;;;;;;;;2575304;23;19914;-84
2022/05/18 01:30:22;;;;;;;;;;;;;;;;;;2575032;23;19954;-82
2022/05/18 01:31:44;;;;;;;;;;;;;;;;;;2574991;23;19904;-80
2022/05/18 01:32:46;;;;;;;;;;;;;;;;;;2575144;23;19904;-82
2022/05/18 01:33:47;;;;;;;;;;;;;;;;;;2558033;23;19904;-83
2022/05/18 01:34:47;;;;;;;;;;;;;;;;;;2570313;23;19982;-81
2022/05/18 01:35:48;;;;;;;;;;;;;;;;;;2574678;23;19907;-83
2022/05/18 01:36:49;;;;;;;;;;;;;;;;;;2575271;23;19979;-82
2022/05/18 01:37:49;;;;;;;;;;;;;;;;;;2575094;23;19911;-82
2022/05/18 01:38:50;;;;;;;;;;;;;;;;;;2575250;23;19903;-82
2022/05/18 01:39:52;;;;;;;;;;;;;;;;;;2575194;23;19904;-84
2022/05/18 01:40:53;;;;;;;;;;;;;;;;;;2574591;23;19927;-83
2022/05/18 01:42:02;;;;;;;;;;;;;;;;;;2574646;23;20381;-84
2022/05/18 01:43:22;;;;;;;;;;;;;;;;;;2575101;23;19907;-84
2022/05/18 01:44:23;;;;;;;;;;;;;;;;;;2558150;23;19904;-85
2022/05/18 01:45:23;;;;;;;;;;;;;;;;;;2562230;23;19950;-83
2022/05/18 01:46:23;;;;;;;;;;;;;;;;;;2557921;23;19904;-85
2022/05/18 01:47:24;;;;;;;;;;;;;;;;;;2562400;23;19926;-84
2022/05/18 01:48:26;;;;;;;;;;;;;;;;;;2575203;23;19971;-82
2022/05/18 01:49:26;;;;;;;;;;;;;;;;;;2575352;23;19931;-83
2022/05/18 01:50:28;;;;;;;;;;;;;;;;;;2575187;23;20300;-83
2022/05/18 01:51:34;;;;;;;;;;;;;;;;;;2570297;23;19950;-84
2022/05/18 01:52:35;;;;;;;;;;;;;;;;;;2570373;23;19904;-83
2022/05/18 01:53:35;;;;;;;;;;;;;;;;;;2572984;23;20002;-83
2022/05/18 01:54:37;;;;;;;;;;;;;;;;;;2575258;23;19990;-82
2022/05/18 01:55:37;;;;;;;;;;;;;;;;;;2575066;23;20208;-84
2022/05/18 01:56:37;;;;;;;;;;;;;;;;;;2575258;23;19993;-84
2022/05/18 01:57:38;;;;;;;;;;;;;;;;;;2575145;23;19912;-83
2022/05/18 01:58:38;;;;;;;;;;;;;;;;;;2575041;23;19908;-84
2022/05/18 01:59:39;;;;;;;;;;;;;;;;;;2557779;23;19916;-84
2022/05/18 02:00:41;;;;;;;;;;;;;;;;;;2558374;23;19904;-84
2022/05/18 02:01:41;;;;;;;;;;;;;;;;;;2575118;23;20276;-84
2022/05/18 02:02:42;;;;;;;;;;;;;;;;;;2557644;23;20296;-83
2022/05/18 02:03:42;;;;;;;;;;;;;;;;;;2562319;23;19904;-83
2022/05/18 02:04:42;;;;;;;;;;;;;;;;;;2575212;23;19950;-84
2022/05/18 02:05:43;;;;;;;;;;;;;;;;;;2571305;23;19970;-84
2022/05/18 02:06:43;;;;;;;;;;;;;;;;;;2575048;23;20242;-82
2022/05/18 02:07:43;;;;;;;;;;;;;;;;;;2574933;23;20300;-84
2022/05/18 02:08:44;;;;;;;;;;;;;;;;;;2575299;23;19966;-85
2022/05/18 02:09:44;;;;;;;;;;;;;;;;;;2557717;23;19990;-83
2022/05/18 02:10:44;;;;;;;;;;;;;;;;;;2545456;23;19939;-84
2022/05/18 02:11:45;;;;;;;;;;;;;;;;;;2545344;23;20298;-84
2022/05/18 02:12:45;;;;;;;;;;;;;;;;;;2557741;23;20173;-84
2022/05/18 02:13:51;;;;;;;;;;;;;;;;;;2574504;23;20204;-84
2022/05/18 02:14:51;;;;;;;;;;;;;;;;;;2571044;23;19965;-84
2022/05/18 02:15:51;;;;;;;;;;;;;;;;;;2557906;23;19908;-83
2022/05/18 02:16:54;;;;;;;;;;;;;;;;;;2557786;23;19904;-82
2022/05/18 02:17:54;;;;;;;;;;;;;;;;;;2574557;23;19908;-83
2022/05/18 02:18:54;;;;;;;;;;;;;;;;;;2574927;23;19931;-82
2022/05/18 02:19:55;;;;;;;;;;;;;;;;;;2574957;23;20239;-82
2022/05/18 02:20:56;;;;;;;;;;;;;;;;;;2574846;23;19942;-82
2022/05/18 02:21:56;;;;;;;;;;;;;;;;;;2570211;23;19908;-83
2022/05/18 02:22:56;;;;;;;;;;;;;;;;;;2574325;23;20346;-83
2022/05/18 02:23:56;;;;;;;;;;;;;;;;;;2574872;23;19931;-83
2022/05/18 02:24:57;;;;;;;;;;;;;;;;;;2574875;23;19904;-82
2022/05/18 02:25:58;;;;;;;;;;;;;;;;;;2574795;23;19973;-82
2022/05/18 02:26:59;;;;;;;;;;;;;;;;;;2557455;23;20325;-84
2022/05/18 02:27:59;;;;;;;;;;;;;;;;;;2561758;23;19904;-82
2022/05/18 02:29:00;;;;;;;;;;;;;;;;;;2575008;23;19987;-82
2022/05/18 02:30:01;;;;;;;;;;;;;;;;;;2557607;23;19961;-83
2022/05/18 02:31:01;;;;;;;;;;;;;;;;;;2561922;23;19971;-83
2022/05/18 02:32:02;;;;;;;;;;;;;;;;;;2574813;23;19904;-83
2022/05/18 02:33:03;;;;;;;;;;;;;;;;;;2574909;23;19942;-84
2022/05/18 02:34:06;;;;;;;;;;;;;;;;;;2575178;23;20330;-84
2022/05/18 02:35:07;;;;;;;;;;;;;;;;;;2575013;23;19914;-82
2022/05/18 02:36:08;;;;;;;;;;;;;;;;;;2574986;23;19904;-81
2022/05/18 02:37:08;;;;;;;;;;;;;;;;;;2570264;23;19942;-84
2022/05/18 02:38:11;;;;;;;;;;;;;;;;;;2569849;23;19987;-83
2022/05/18 02:39:11;;;;;;;;;;;;;;;;;;2574416;23;19907;-82
2022/05/18 02:40:12;;;;;;;;;;;;;;;;;;2575006;23;19911;-83
2022/05/18 02:41:12;;;;;;;;;;;;;;;;;;2574546;23;19904;-82
2022/05/18 02:42:15;;;;;;;;;;;;;;;;;;2570780;23;20276;-83
2022/05/18 02:43:16;;;;;;;;;;;;;;;;;;2574656;23;20000;-82
2022/05/18 02:44:17;;;;;;;;;;;;;;;;;;2557928;23;20274;-83
2022/05/18 02:45:17;;;;;;;;;;;;;;;;;;2557992;23;19948;-83
2022/05/18 02:46:21;;;;;;;;;;;;;;;;;;2557722;23;20094;-83
2022/05/18 02:47:22;;;;;;;;;;;;;;;;;;2561778;23;19904;-83
2022/05/18 02:48:23;;;;;;;;;;;;;;;;;;2574636;23;20315;-83
2022/05/18 02:49:23;;;;;;;;;;;;;;;;;;2574730;23;19904;-82
2022/05/18 02:50:24;;;;;;;;;;;;;;;;;;2569726;23;20350;-83
2022/05/18 02:51:24;;;;;;;;;;;;;;;;;;2574032;23;19911;-83
2022/05/18 02:52:27;;;;;;;;;;;;;;;;;;2570877;23;19904;-82
2022/05/18 02:53:27;;;;;;;;;;;;;;;;;;2574529;23;20334;-82
2022/05/18 02:57:06;;;;;;;;;;;;;;;;;;2574401;23;19907;-82
2022/05/18 02:58:07;;;;;;;;;;;;;;;;;;2557255;23;19938;-82
2022/05/18 02:59:07;;;;;;;;;;;;;;;;;;2557262;23;19970;-83
2022/05/18 03:00:10;;;;;;;;;;;;;;;;;;2569752;23;19915;-82
2022/05/18 03:01:11;;;;;;;;;;;;;;;;;;2569870;23;19911;-83
2022/05/18 03:02:12;;;;;;;;;;;;;;;;;;2573889;23;19914;-81
2022/05/18 03:03:12;;;;;;;;;;;;;;;;;;2557143;23;19955;-82
2022/05/18 03:04:14;;;;;;;;;;;;;;;;;;2557619;23;19974;-82
2022/05/18 03:05:17;;;;;;;;;;;;;;;;;;2574450;23;20199;-82
2022/05/18 03:06:18;;;;;;;;;;;;;;;;;;2574490;23;19904;-81
2022/05/18 03:07:18;;;;;;;;;;;;;;;;;;2574591;23;20287;-83
2022/05/18 03:08:19;;;;;;;;;;;;;;;;;;2574596;23;19903;-82
2022/05/18 03:09:22;;;;;;;;;;;;;;;;;;2574418;23;20312;-82
2022/05/18 03:10:22;;;;;;;;;;;;;;;;;;2557063;23;20254;-82
2022/05/18 03:11:22;;;;;;;;;;;;;;;;;;2556909;23;19983;-82
2022/05/18 03:12:28;;;;;;;;;;;;;;;;;;2569456;23;19915;-82
2022/05/18 03:13:28;;;;;;;;;;;;;;;;;;2574035;23;19966;-82
2022/05/18 03:14:28;;;;;;;;;;;;;;;;;;2569808;23;19970;-82
2022/05/18 03:15:29;;;;;;;;;;;;;;;;;;2574038;23;19903;-82
2022/05/18 03:16:32;;;;;;;;;;;;;;;;;;2557224;23;20304;-82
2022/05/18 03:17:32;;;;;;;;;;;;;;;;;;2562056;23;19927;-82
2022/05/18 03:18:36;;;;;;;;;;;;;;;;;;2574502;23;20330;-82
2022/05/18 03:19:36;;;;;;;;;;;;;;;;;;2574447;23;19904;-82
2022/05/18 03:23:34;;;;;;;;;;;;;;;;;;2574960;23;19924;-81
2022/05/18 03:24:37;;;;;;;;;;;;;;;;;;2574905;23;19946;-83
2022/05/18 03:25:40;;;;;;;;;;;;;;;;;;2557785;23;19982;-83
2022/05/18 03:26:41;;;;;;;;;;;;;;;;;;2562340;23;19904;-81
2022/05/18 03:27:44;;;;;;;;;;;;;;;;;;2574856;23;20327;-83
2022/05/18 03:28:46;;;;;;;;;;;;;;;;;;2574921;23;19903;-83
2022/05/18 03:29:46;;;;;;;;;;;;;;;;;;2574701;23;19904;-83
2022/05/18 03:30:46;;;;;;;;;;;;;;;;;;2574565;23;19911;-83
2022/05/18 03:31:48;;;;;;;;;;;;;;;;;;2574792;23;19904;-83
2022/05/18 03:32:50;;;;;;;;;;;;;;;;;;2574819;23;20239;-82
2022/05/18 03:33:59;;;;;;;;;;;;;;;;;;2574856;23;19911;-82
2022/05/18 03:34:59;;;;;;;;;;;;;;;;;;2574877;23;19969;-82
2022/05/18 03:36:00;;;;;;;;;;;;;;;;;;2574830;23;19915;-83
2022/05/18 03:37:03;;;;;;;;;;;;;;;;;;2574875;23;19903;-82
2022/05/18 03:38:26;;;;;;;;;;;;;;;;;;2557357;23;19943;-83
2022/05/18 03:39:29;;;;;;;;;;;;;;;;;;2562145;23;19935;-83
2022/05/18 03:40:29;;;;;;;;;;;;;;;;;;2574306;23;19911;-82
2022/05/18 03:41:34;;;;;;;;;;;;;;;;;;2570033;23;19938;-81
2022/05/18 03:42:55;;;;;;;;;;;;;;;;;;2572810;23;19908;-82
2022/05/18 03:44:02;;;;;;;;;;;;;;;;;;2561948;23;19978;-81
2022/05/18 03:45:05;;;;;;;;;;;;;;;;;;2559435;23;19904;-83
2022/05/18 03:46:08;;;;;;;;;;;;;;;;;;2574202;23;19904;-83
2022/05/18 03:47:19;;;;;;;;;;;;;;;;;;2561327;23;19978;-81
2022/05/18 03:48:29;;;;;;;;;;;;;;;;;;2563920;23;20311;-81
2022/05/18 03:49:30;;;;;;;;;;;;;;;;;;2575024;23;19904;-83
2022/05/18 03:50:36;;;;;;;;;;;;;;;;;;2575154;23;19908;-83
2022/05/18 03:51:39;;;;;;;;;;;;;;;;;;2575140;23;19907;-82
2022/05/18 03:52:53;;;;;;;;;;;;;;;;;;2575650;23;19914;-83
2022/05/18 03:53:55;;;;;;;;;;;;;;;;;;2575682;23;19910;-81
2022/05/18 03:54:58;;;;;;;;;;;;;;;;;;2558556;23;19904;-83
2022/05/18 03:56:01;;;;;;;;;;;;;;;;;;2563047;23;20201;-83
2022/05/18 03:57:10;;;;;;;;;;;;;;;;;;2575671;23;19954;-81
2022/05/18 03:58:20;;;;;;;;;;;;;;;;;;2575701;23;19904;-82
2022/05/18 03:59:24;;;;;;;;;;;;;;;;;;2558475;23;20310;-81
2022/05/18 04:00:33;;;;;;;;;;;;;;;;;;2558973;23;19904;-83
2022/05/18 04:01:36;;;;;;;;;;;;;;;;;;2575231;23;19915;-83
2022/05/18 04:02:36;;;;;;;;;;;;;;;;;;2575356;23;19907;-83
2022/05/18 04:03:38;;;;;;;;;;;;;;;;;;2575687;23;20214;-82
2022/05/18 04:06:06;;;;;;;;;;;;;;;;;;2571216;23;20093;-82
2022/05/18 04:07:06;;;;;;;;;;;;;;;;;;2575648;23;19908;-82
2022/05/18 04:08:08;;;;;;;;;;;;;;;;;;2575648;23;20286;-81
2022/05/18 04:09:08;;;;;;;;;;;;;;;;;;2558594;23;20257;-83
2022/05/18 04:11:32;;;;;;;;;;;;;;;;;;2560466;23;20322;-81
2022/05/18 04:12:43;;;;;;;;;;;;;;;;;;2575573;23;19903;-81
2022/05/18 04:13:44;;;;;;;;;;;;;;;;;;2575670;23;19904;-84
2022/05/18 04:14:54;;;;;;;;;;;;;;;;;;;;;
2022/05/18 04:15:55;;;;;;;;;;;;;;;;;;2561808;23;20288;-82
2022/05/18 04:17:02;;;;;;;;;;;;;;;;;;2558285;23;19919;-81
2022/05/18 04:18:08;;;;;;;;;;;;;;;;;;2563989;23;19992;-82
2022/05/18 04:19:09;;;;;;;;;;;;;;;;;;2574482;23;19915;-83
2022/05/18 04:20:20;;;;;;;;;;;;;;;;;;2574523;23;19903;-82
2022/05/18 04:21:21;;;;;;;;;;;;;;;;;;2575438;23;20307;-82
2022/05/18 04:22:23;;;;;;;;;;;;;;;;;;2575377;23;19987;-82
2022/05/18 04:23:31;;;;;;;;;;;;;;;;;;2575511;23;20247;-82
2022/05/18 04:24:34;;;;;;;;;;;;;;;;;;2575489;23;19946;-82
2022/05/18 04:25:36;;;;;;;;;;;;;;;;;;2575442;23;19912;-83
2022/05/18 04:26:50;;;;;;;;;;;;;;;;;;;;;
2022/05/18 04:27:55;;;;;;;;;;;;;;;;;;2574895;23;19915;-82
2022/05/18 04:29:01;;;;;;;;;;;;;;;;;;2575432;23;19982;-84
2022/05/18 04:30:25;;;;;;;;;;;;;;;;;;2558321;23;19911;-83
2022/05/18 04:31:30;;;;;;;;;;;;;;;;;;2562902;23;20227;-83
2022/05/18 04:32:30;;;;;;;;;;;;;;;;;;2573860;23;19950;-83
2022/05/18 04:33:33;;;;;;;;;;;;;;;;;;2555382;23;19904;-81
2022/05/18 04:34:34;;;;;;;;;;;;;;;;;;2562818;23;20324;-81
2022/05/18 04:35:39;;;;;;;;;;;;;;;;;;2575440;23;19931;-83
2022/05/18 04:36:39;;;;;;;;;;;;;;;;;;2575444;23;19908;-83
2022/05/18 04:37:42;;;;;;;;;;;;;;;;;;2570695;23;19908;-81
2022/05/18 04:38:42;;;;;;;;;;;;;;;;;;2570279;23;19932;-81
2022/05/18 04:39:43;;;;;;;;;;;;;;;;;;2562391;23;19912;-83
2022/05/18 04:40:46;;;;;;;;;;;;;;;;;;2575471;23;19961;-84
2022/05/18 04:41:51;;;;;;;;;;;;;;;;;;2575196;23;20290;-82
2022/05/18 04:42:56;;;;;;;;;;;;;;;;;;2575363;23;19904;-83
2022/05/18 04:44:01;;;;;;;;;;;;;;;;;;2575334;23;19919;-83
2022/05/18 04:45:02;;;;;;;;;;;;;;;;;;2575536;23;20307;-84
2022/05/18 04:46:08;;;;;;;;;;;;;;;;;;2575430;23;20345;-82
2022/05/18 04:47:19;;;;;;;;;;;;;;;;;;2558211;23;19975;-83
2022/05/18 04:48:24;;;;;;;;;;;;;;;;;;2564554;23;20334;-82
2022/05/18 04:49:26;;;;;;;;;;;;;;;;;;2575299;23;19958;-83
2022/05/18 04:50:28;;;;;;;;;;;;;;;;;;2558079;23;20259;-83
2022/05/18 04:51:41;;;;;;;;;;;;;;;;;;;;;
2022/05/18 04:52:44;;;;;;;;;;;;;;;;;;2570576;23;19982;-84
2022/05/18 04:53:50;;;;;;;;;;;;;;;;;;2575163;23;19904;-83
2022/05/18 04:54:54;;;;;;;;;;;;;;;;;;2576310;23;19911;-84
2022/05/18 04:55:56;;;;;;;;;;;;;;;;;;2575140;23;19904;-82
2022/05/18 04:56:59;;;;;;;;;;;;;;;;;;2557665;23;19908;-84
2022/05/18 04:58:02;;;;;;;;;;;;;;;;;;2562604;23;20241;-83
2022/05/18 04:59:05;;;;;;;;;;;;;;;;;;2558007;23;20271;-84
2022/05/18 05:00:10;;;;;;;;;;;;;;;;;;2562300;23;20419;-84
2022/05/18 05:01:12;;;;;;;;;;;;;;;;;;2575013;23;20420;-83
2022/05/18 05:02:13;;;;;;;;;;;;;;;;;;2574735;23;20381;-88
2022/05/18 05:03:15;;;;;;;;;;;;;;;;;;2574649;23;19916;-92
2022/05/18 05:04:16;;;;;;;;;;;;;;;;;;2570576;23;19919;-86
2022/05/18 05:05:19;;;;;;;;;;;;;;;;;;2574310;23;20373;-84
2022/05/18 05:06:19;;;;;;;;;;;;;;;;;;2575094;23;19971;-87
2022/05/18 05:07:19;;;;;;;;;;;;;;;;;;2557748;23;20001;-79
2022/05/18 05:08:25;;;;;;;;;;;;;;;;;;2561980;23;20365;-90
2022/05/18 05:09:28;;;;;;;;;;;;;;;;;;2575142;23;19904;-85
2022/05/18 05:10:31;;;;;;;;;;;;;;;;;;2575115;23;19915;-86
2022/05/18 05:11:34;;;;;;;;;;;;;;;;;;2557497;23;20154;-83
2022/05/18 05:12:34;;;;;;;;;;;;;;;;;;2562263;23;19986;-86
2022/05/18 05:19:26;;;;;;;;;;;;;;;;;;;;;
2022/05/18 05:20:51;;;;;;;;;;;;;;;;;;2519333;23;20325;-81
2022/05/18 05:22:14;;;;;;;;;;;;;;;;;;2557881;23;19905;-82
2022/05/18 05:23:24;;;;;;;;;;;;;;;;;;;;;
2022/05/18 05:24:34;;;;;;;;;;;;;;;;;;;;;
2022/05/18 05:26:03;;;;;;;;;;;;;;;;;;2565045;23;19904;-82
2022/05/18 05:27:33;;;;;;;;;;;;;;;;;;2575177;23;19931;-82
2022/05/18 05:29:15;;;;;;;;;;;;;;;;;;2575042;23;19962;-84
2022/05/18 05:30:27;;;;;;;;;;;;;;;;;;;;;
2022/05/18 05:31:33;;;;;;;;;;;;;;;;;;2574729;23;19907;-86
2022/05/18 05:34:34;;;;;;;;;;;;;;;;;;;;;
2022/05/18 05:36:13;;;;;;;;;;;;;;;;;;2536903;23;20812;-83
2022/05/18 05:39:21;;;;;;;;;;;;;;;;;;2559633;23;19938;-84
2022/05/18 05:41:50;;;;;;;;;;;;;;;;;;2558602;23;19932;-86
2022/05/18 05:44:48;;;;;;;;;;;;;;;;;;2540246;23;20210;-85
2022/05/18 05:46:03;;;;;;;;;;;;;;;;;;2574939;23;20311;-84
2022/05/18 05:47:18;;;;;;;;;;;;;;;;;;;;;
2022/05/18 05:48:28;;;;;;;;;;;;;;;;;;;;;
2022/05/18 05:49:29;;;;;;;;;;;;;;;;;;2574666;23;19903;-91
2022/05/18 05:50:38;;;;;;;;;;;;;;;;;;2569823;23;19914;-84
2022/05/18 05:51:49;;;;;;;;;;;;;;;;;;2574324;23;19904;-80
2022/05/18 05:55:50;;;;;;;;;;;;;;;;;;2570550;23;19904;-81
2022/05/18 05:56:57;;;;;;;;;;;;;;;;;;2574999;23;19904;-82
2022/05/18 06:01:19;;;;;;;;;;;;;;;;;;2530731;23;19913;-85
2022/05/18 06:04:47;;;;;;;;;;;;;;;;;;;;;
2022/05/18 06:06:20;;;;;;;;;;;;;;;;;;2574662;23;19904;-86
2022/05/18 06:07:26;;;;;;;;;;;;;;;;;;2575068;23;19904;-84
2022/05/18 06:08:27;;;;;;;;;;;;;;;;;;2575272;23;19903;-80
2022/05/18 06:09:43;;;;;;;;;;;;;;;;;;2556878;23;19979;-85
2022/05/18 06:11:59;;;;;;;;;;;;;;;;;;2582845;22;20388;-83
2022/05/18 06:13:31;;;;;;;;;;;;;;;;;;2587441;23;19915;-86
2022/05/18 06:16:09;;;;;;;;;;;;;;;;;;2564925;23;19908;-83
2022/05/18 06:17:41;;;;;;;;;;;;;;;;;;2587620;23;19896;-86
2022/05/18 06:18:59;;;;;;;;;;;;;;;;;;2587667;23;20274;-86
2022/05/18 06:20:05;;;;;;;;;;;;;;;;;;2570049;23;19943;-81
2022/05/18 06:21:28;;;;;;;;;;;;;;;;;;2575490;23;19978;-82
2022/05/18 06:22:29;;;;;;;;;;;;;;;;;;2587151;23;19903;-92
2022/05/18 06:25:12;;;;;;;;;;;;;;;;;;2572182;23;20258;-84
2022/05/18 06:28:01;;;;;;;;;;;;;;;;;;2583189;23;19903;-82
2022/05/18 06:29:40;;;;;;;;;;;;;;;;;;;;;
2022/05/18 06:31:12;;;;;;;;;;;;;;;;;;2587754;23;20274;-82
2022/05/18 06:32:43;;;;;;;;;;;;;;;;;;2579838;23;19931;-83
2022/05/18 06:33:46;;;;;;;;;;;;;;;;;;2573148;23;19911;-82
2022/05/18 06:34:48;;;;;;;;;;;;;;;;;;2569346;23;19914;-84
2022/05/18 06:36:16;;;;;;;;;;;;;;;;;;2573423;23;19989;-84
2022/05/18 06:38:02;;;;;;;;;;;;;;;;;;2567786;23;19933;-83
2022/05/18 06:41:45;;;;;;;;;;;;;;;;;;2583050;22;20325;-93
2022/05/18 06:42:45;;;;;;;;;;;;;;;;;;2571014;23;19939;-93
2022/05/18 06:43:56;;;;;;;;;;;;;;;;;;2558048;23;19950;-92
2022/05/18 06:44:56;;;;;;;;;;;;;;;;;;2573678;23;19904;-93
2022/05/18 06:45:57;;;;;;;;;;;;;;;;;;2570678;23;19907;-92
2022/05/18 06:46:58;;;;;;;;;;;;;;;;;;2575308;23;19903;-93
2022/05/18 06:47:59;;;;;;;;;;;;;;;;;;2570480;23;20415;-93
2022/05/18 06:48:59;;;;;;;;;;;;;;;;;;2570750;23;19904;-94
2022/05/18 06:49:59;;;;;;;;;;;;;;;;;;2583635;23;19910;-92
2022/05/18 06:53:10;;;;;;;;;;;;;;;;;;2590572;23;19904;-94
2022/05/18 06:54:10;;;;;;;;;;;;;;;;;;2588742;23;19904;-93
2022/05/18 06:55:13;;;;;;;;;;;;;;;;;;2572539;23;19952;-92
2022/05/18 06:56:14;;;;;;;;;;;;;;;;;;2575594;23;19903;-93
2022/05/18 06:57:14;;;;;;;;;;;;;;;;;;2571932;23;19920;-93
2022/05/18 06:58:44;;;;;;;;;;;;;;;;;;2576182;23;19904;-95
2022/05/18 06:59:44;;;;;;;;;;;;;;;;;;2585419;23;19907;-93
2022/05/18 07:00:48;;;;;;;;;;;;;;;;;;2583543;23;19903;-92
2022/05/18 07:01:48;;;;;;;;;;;;;;;;;;2570949;23;20272;-93
2022/05/18 07:02:50;;;;;;;;;;;;;;;;;;2558649;23;19908;-93
2022/05/18 07:03:50;;;;;;;;;;;;;;;;;;2570984;23;19903;-95
2022/05/18 07:04:56;;;;;;;;;;;;;;;;;;2571697;23;19904;-91
2022/05/18 07:06:12;;;;;;;;;;;;;;;;;;2572461;23;19994;-93
2022/05/18 07:07:44;;;;;;;;;;;;;;;;;;2580558;23;19983;-90
2022/05/18 07:09:10;;;;;;;;;;;;;;;;;;2568111;23;19904;-96
2022/05/18 07:10:27;;;;;;;;;;;;;;;;;;2579181;23;19939;-95
2022/05/18 07:11:28;;;;;;;;;;;;;;;;;;2579007;23;19935;-95
2022/05/18 07:12:29;;;;;;;;;;;;;;;;;;2571917;23;19935;-94
2022/05/18 07:13:32;;;;;;;;;;;;;;;;;;2583895;23;19934;-92
2022/05/18 07:14:33;;;;;;;;;;;;;;;;;;2570701;23;19974;-92
2022/05/18 07:15:34;;;;;;;;;;;;;;;;;;2576202;23;19904;-94
2022/05/18 07:16:44;;;;;;;;;;;;;;;;;;2588361;23;19904;-93
2022/05/18 07:17:44;;;;;;;;;;;;;;;;;;2576773;23;20344;-93
2022/05/18 07:18:45;;;;;;;;;;;;;;;;;;2570346;23;19911;-95
2022/05/18 07:19:45;;;;;;;;;;;;;;;;;;2582311;23;19934;-95
2022/05/18 07:20:46;;;;;;;;;;;;;;;;;;2571443;23;19910;-95
2022/05/18 07:21:49;;;;;;;;;;;;;;;;;;2571156;23;19908;-94
2022/05/18 07:22:50;;;;;;;;;;;;;;;;;;2571726;23;19908;-94
2022/05/18 07:23:50;;;;;;;;;;;;;;;;;;2563074;23;19948;-95
2022/05/18 07:24:50;;;;;;;;;;;;;;;;;;2566753;23;19912;-96
2022/05/18 07:25:55;;;;;;;;;;;;;;;;;;2575882;23;19904;-94
2022/05/18 07:26:57;;;;;;;;;;;;;;;;;;2568125;23;19903;-92
2022/05/18 07:27:58;;;;;;;;;;;;;;;;;;2569997;23;19904;-94
2022/05/18 07:29:01;;;;;;;;;;;;;;;;;;2582651;23;19903;-94
2022/05/18 07:30:04;;;;;;;;;;;;;;;;;;2582948;23;19943;-94
2022/05/18 07:31:05;;;;;;;;;;;;;;;;;;2587480;23;19896;-94
2022/05/18 07:32:22;;;;;;;;;;;;;;;;;;2599753;22;19938;-96
2022/05/18 07:33:24;;;;;;;;;;;;;;;;;;2582877;23;19916;-94
2022/05/18 07:34:25;;;;;;;;;;;;;;;;;;2570718;23;19903;-95
2022/05/18 07:35:28;;;;;;;;;;;;;;;;;;2577380;23;20426;-94
2022/05/18 07:36:29;;;;;;;;;;;;;;;;;;2590236;23;19986;-94
2022/05/18 07:37:29;;;;;;;;;;;;;;;;;;2572157;23;19907;-94
2022/05/18 07:38:45;;;;;;;;;;;;;;;;;;2560361;23;20326;-95
2022/05/18 07:43:18;;;;;;;;;;;;;;;;;;2588625;23;19950;-94
2022/05/18 07:46:35;;;;;;;;;;;;;;;;;;2530511;23;19944;-94
2022/05/18 07:47:36;;;;;;;;;;;;;;;;;;2583293;23;19926;-95
2022/05/18 07:48:55;;;;;;;;;;;;;;;;;;2573096;23;20337;-96
2022/05/18 07:50:12;;;;;;;;;;;;;;;;;;;;;
2022/05/18 07:51:51;;;;;;;;;;;;;;;;;;2580189;23;19904;-95
2022/05/18 07:52:59;;;;;;;;;;;;;;;;;;2583546;23;19908;-96
2022/05/18 07:54:52;;;;;;;;;;;;;;;;;;2559691;23;19914;-95
2022/05/18 07:56:08;;;;;;;;;;;;;;;;;;;;;
2022/05/18 07:57:37;;;;;;;;;;;;;;;;;;2579964;23;19910;-94
2022/05/18 07:58:38;;;;;;;;;;;;;;;;;;2585410;23;19941;-94
2022/05/18 08:17:47;;;;;;;;;;;;;;;;;;2555685;23;19973;-96
2022/05/18 08:21:03;;;;;;;;;;;;;;;;;;2523515;23;19909;-94
2022/05/18 08:22:07;;;;;;;;;;;;;;;;;;2548504;23;19912;-96
2022/05/18 08:24:59;;;;;;;;;;;;;;;;;;2571224;23;19904;-96
2022/05/18 08:31:39;;;;;;;;;;;;;;;;;;2584278;23;19912;-96
2022/05/18 08:32:47;;;;;;;;;;;;;;;;;;2575163;23;19904;-94
2022/05/18 08:34:05;;;;;;;;;;;;;;;;;;2574397;23;19958;-95
2022/05/18 08:35:11;;;;;;;;;;;;;;;;;;2577798;23;19919;-95
2022/05/18 08:36:26;;;;;;;;;;;;;;;;;;2573582;23;19938;-94
2022/05/18 08:37:29;;;;;;;;;;;;;;;;;;2560231;23;19915;-95
2022/05/18 08:38:30;;;;;;;;;;;;;;;;;;2559302;23;20253;-93
2022/05/18 08:39:33;;;;;;;;;;;;;;;;;;2575584;23;19904;-95
2022/05/18 08:40:52;;;;;;;;;;;;;;;;;;2562584;23;19924;-93
2022/05/18 08:41:52;;;;;;;;;;;;;;;;;;2550059;23;20277;-93
2022/05/18 08:43:06;;;;;;;;;;;;;;;;;;2548586;23;19904;-93
2022/05/18 08:44:28;;;;;;;;;;;;;;;;;;2567711;23;19912;-95
2022/05/18 08:45:38;;;;;;;;;;;;;;;;;;2582751;23;19899;-95